createdAt,value
2022-08-05T00:00:18.784Z,15.63
2022-08-05T00:03:06.178Z,15.62
2022-08-05T00:06:05.646Z,15.61
2022-08-05T00:08:34.455Z,15.57
2022-08-05T00:11:07.499Z,15.60
2022-08-05T00:13:53.156Z,15.58
2022-08-05T00:16:35.506Z,15.57
2022-08-05T00:19:04.203Z,15.52
2022-08-05T00:21:35.935Z,15.55
2022-08-05T00:24:10.079Z,15.53
2022-08-05T00:26:50.761Z,15.52
2022-08-05T00:29:25.471Z,15.54
2022-08-05T00:32:12.790Z,15.51
2022-08-05T00:35:04.494Z,15.49
2022-08-05T00:37:52.320Z,15.44
2022-08-05T00:40:27.929Z,15.43
2022-08-05T00:42:59.466Z,15.40
2022-08-05T00:45:38.823Z,15.37
2022-08-05T00:48:12.964Z,15.35
2022-08-05T00:50:44.035Z,15.34
2022-08-05T00:54:00.738Z,15.36
2022-08-05T00:55:59.994Z,15.29
2022-08-05T00:58:27.837Z,15.29
2022-08-05T01:00:55.626Z,15.21
2022-08-05T01:03:24.445Z,15.31
2022-08-05T01:05:58.669Z,15.39
2022-08-05T01:08:30.292Z,15.48
2022-08-05T01:11:33.532Z,15.60
2022-08-05T01:14:08.989Z,15.73
2022-08-05T01:16:53.546Z,15.66
2022-08-05T01:20:01.682Z,15.88
2022-08-05T01:22:46.937Z,16.04
2022-08-05T01:25:41.681Z,16.23
2022-08-05T01:28:31.165Z,16.43
2022-08-05T01:31:45.150Z,16.55
2022-08-05T01:34:16.310Z,16.65
2022-08-05T01:37:06.572Z,16.76
2022-08-05T01:39:47.587Z,16.75
2022-08-05T01:42:18.221Z,16.70
2022-08-05T01:44:53.821Z,16.58
2022-08-05T01:47:23.808Z,16.41
2022-08-05T01:50:02.007Z,16.33
2022-08-05T01:52:32.258Z,16.39
2022-08-05T01:55:04.378Z,16.50
2022-08-05T01:58:18.773Z,16.57
2022-08-05T02:00:29.970Z,16.69
2022-08-05T02:03:03.714Z,16.75
2022-08-05T02:05:34.467Z,16.83
2022-08-05T02:08:04.280Z,16.88
2022-08-05T02:10:36.790Z,16.91
2022-08-05T02:13:48.755Z,16.97
2022-08-05T02:16:22.422Z,16.96
2022-08-05T02:19:02.045Z,17.00
2022-08-05T02:21:46.646Z,16.97
2022-08-05T02:24:19.527Z,16.92
2022-08-05T02:26:55.153Z,16.97
2022-08-05T02:29:26.026Z,16.99
2022-08-05T02:32:23.869Z,17.04
2022-08-05T02:35:02.009Z,17.03
2022-08-05T02:37:43.270Z,17.08
2022-08-05T02:40:17.136Z,17.08
2022-08-05T02:42:45.275Z,17.08
2022-08-05T02:45:23.967Z,17.01
2022-08-05T02:48:07.113Z,17.05
2022-08-05T02:50:46.138Z,17.06
2022-08-05T02:53:19.135Z,17.06
2022-08-05T02:55:54.377Z,16.99
2022-08-05T02:58:26.820Z,17.03
2022-08-05T03:00:56.366Z,17.01
2022-08-05T03:03:24.211Z,17.05
2022-08-05T03:06:55.815Z,17.07
2022-08-05T03:08:42.580Z,17.14
2022-08-05T03:11:55.022Z,17.15
2022-08-05T03:14:13.487Z,17.17
2022-08-05T03:16:41.305Z,17.15
2022-08-05T03:19:17.029Z,17.12
2022-08-05T03:21:57.570Z,17.11
2022-08-05T03:24:29.994Z,17.09
2022-08-05T03:27:02.094Z,17.04
2022-08-05T03:29:45.535Z,16.92
2022-08-05T03:32:19.662Z,16.99
2022-08-05T03:34:51.055Z,16.99
2022-08-05T03:37:21.335Z,17.00
2022-08-05T03:40:01.037Z,16.92
2022-08-05T03:42:32.312Z,16.81
2022-08-05T03:45:01.791Z,16.58
2022-08-05T03:47:49.274Z,16.55
2022-08-05T03:50:17.241Z,16.56
2022-08-05T03:55:51.363Z,16.52
2022-08-05T03:56:11.015Z,16.52
2022-08-05T03:58:41.154Z,16.59
2022-08-05T04:01:12.857Z,16.68
2022-08-05T04:04:10.155Z,16.79
2022-08-05T04:06:31.951Z,16.99
2022-08-05T04:08:59.644Z,17.19
2022-08-05T04:11:50.853Z,17.32
2022-08-05T04:14:18.042Z,17.46
2022-08-05T04:16:45.833Z,17.53
2022-08-05T04:19:13.473Z,17.65
2022-08-05T04:22:09.703Z,17.74
2022-08-05T04:24:29.260Z,17.99
2022-08-05T04:26:58.110Z,18.06
2022-08-05T04:29:27.131Z,18.22
2022-08-05T04:31:56.917Z,18.35
2022-08-05T04:34:32.751Z,18.49
2022-08-05T04:37:03.143Z,18.67
2022-08-05T04:39:32.197Z,18.82
2022-08-05T04:42:00.260Z,18.92
2022-08-05T04:44:30.504Z,19.06
2022-08-05T04:46:59.390Z,19.24
2022-08-05T04:49:39.169Z,19.48
2022-08-05T04:52:16.546Z,19.67
2022-08-05T04:54:45.464Z,19.83
2022-08-05T04:57:13.672Z,19.98
2022-08-05T04:59:41.374Z,20.18
2022-08-05T05:02:36.947Z,20.37
2022-08-05T05:05:02.119Z,20.61
2022-08-05T05:07:32.329Z,20.80
2022-08-05T05:10:04.569Z,21.00
2022-08-05T05:12:32.516Z,21.21
2022-08-05T05:15:03.869Z,21.46
2022-08-05T05:17:56.743Z,21.77
2022-08-05T05:20:28.439Z,22.02
2022-08-05T05:23:08.267Z,22.30
2022-08-05T05:25:47.836Z,22.67
2022-08-05T05:28:16.578Z,22.94
2022-08-05T05:30:44.654Z,23.37
2022-08-05T05:33:23.416Z,23.90
2022-08-05T05:35:51.892Z,24.37
2022-08-05T05:38:22.649Z,24.48
2022-08-05T05:40:56.286Z,24.66
2022-08-05T05:43:54.546Z,24.82
2022-08-05T05:46:17.598Z,25.22
2022-08-05T05:48:49.006Z,25.30
2022-08-05T05:51:21.253Z,25.39
2022-08-05T05:53:57.583Z,25.55
2022-08-05T05:56:32.917Z,25.44
2022-08-05T05:59:07.706Z,25.39
2022-08-05T06:01:39.839Z,25.51
2022-08-05T06:04:12.652Z,25.58
2022-08-05T06:06:47.646Z,25.70
2022-08-05T06:09:25.783Z,25.79
2022-08-05T06:11:59.259Z,25.59
2022-08-05T06:14:31.325Z,25.68
2022-08-05T06:16:59.289Z,25.83
2022-08-05T06:19:34.024Z,25.91
2022-08-05T06:22:06.895Z,25.58
2022-08-05T06:24:35.534Z,25.74
2022-08-05T06:27:04.215Z,25.93
2022-08-05T06:29:46.967Z,26.11
2022-08-05T06:32:25.254Z,26.05
2022-08-05T06:34:59.221Z,26.11
2022-08-05T06:37:56.481Z,26.29
2022-08-05T06:40:17.940Z,26.13
2022-08-05T06:42:52.306Z,26.31
2022-08-05T06:45:55.483Z,26.39
2022-08-05T06:48:36.902Z,26.45
2022-08-05T06:51:00.262Z,26.87
2022-08-05T06:53:28.979Z,27.18
2022-08-05T06:55:58.629Z,27.03
2022-08-05T06:58:35.408Z,27.06
2022-08-05T07:01:06.396Z,27.23
2022-08-05T07:03:34.463Z,27.25
2022-08-05T07:06:06.076Z,27.22
2022-08-05T07:08:47.881Z,27.25
2022-08-05T07:11:22.448Z,27.00
2022-08-05T07:14:15.381Z,27.04
2022-08-05T07:18:00.162Z,26.94
2022-08-05T07:22:29.837Z,27.48
2022-08-05T07:24:59.597Z,27.69
2022-08-05T07:27:57.742Z,27.88
2022-08-05T07:30:33.766Z,28.06
2022-08-05T07:33:05.113Z,28.33
2022-08-05T07:36:04.594Z,28.19
2022-08-05T07:38:34.420Z,28.20
2022-08-05T07:42:06.863Z,28.10
2022-08-05T07:43:57.877Z,27.68
2022-08-05T07:46:27.524Z,27.55
2022-08-05T07:49:02.903Z,27.86
2022-08-05T07:51:53.138Z,27.91
2022-08-05T07:54:31.021Z,28.10
2022-08-05T07:57:17.834Z,28.23
2022-08-05T07:59:50.613Z,28.12
2022-08-05T08:02:18.701Z,28.47
2022-08-05T08:04:47.662Z,28.57
2022-08-05T08:07:22.018Z,28.71
2022-08-05T08:09:53.186Z,28.75
2022-08-05T08:12:35.013Z,28.96
2022-08-05T08:15:14.042Z,29.31
2022-08-05T08:17:52.698Z,29.51
2022-08-05T08:21:00.236Z,29.02
2022-08-05T08:23:11.587Z,28.54
2022-08-05T08:25:59.961Z,28.60
2022-08-05T08:28:35.639Z,28.58
2022-08-05T08:31:08.581Z,28.90
2022-08-05T08:33:37.882Z,29.23
2022-08-05T08:38:57.440Z,29.46
2022-08-05T08:41:50.815Z,29.55
2022-08-05T08:45:18.773Z,29.69
2022-08-05T08:47:47.423Z,29.76
2022-08-05T08:50:23.438Z,29.69
2022-08-05T08:52:55.843Z,29.78
2022-08-05T08:56:02.150Z,29.88
2022-08-05T08:58:13.250Z,29.84
2022-08-05T09:00:42.901Z,30.19
2022-08-05T09:03:16.236Z,30.23
2022-08-05T09:06:08.172Z,30.32
2022-08-05T09:08:40.030Z,30.10
2022-08-05T09:11:13.761Z,29.72
2022-08-05T09:14:09.232Z,29.60
2022-08-05T09:16:31.163Z,29.69
2022-08-05T09:18:59.360Z,29.75
2022-08-05T09:22:23.428Z,29.91
2022-08-05T09:24:16.537Z,30.05
2022-08-05T09:26:47.956Z,29.89
2022-08-05T09:29:19.719Z,29.78
2022-08-05T09:32:42.950Z,29.99
2022-08-05T09:34:58.791Z,29.99
2022-08-05T09:38:17.720Z,30.02
2022-08-05T09:40:35.261Z,30.31
2022-08-05T09:43:03.983Z,30.36
2022-08-05T09:46:06.277Z,30.63
2022-08-05T09:48:33.240Z,30.29
2022-08-05T09:51:02.554Z,30.18
2022-08-05T09:53:53.488Z,30.29
2022-08-05T09:56:33.728Z,30.47
2022-08-05T09:59:08.022Z,30.10
2022-08-05T10:01:39.611Z,29.79
2022-08-05T10:04:12.528Z,29.98
2022-08-05T10:06:54.673Z,30.15
2022-08-05T10:09:29.412Z,30.06
2022-08-05T10:12:30.467Z,29.99
2022-08-05T10:15:23.923Z,29.85
2022-08-05T10:18:05.099Z,29.80
2022-08-05T10:20:34.348Z,29.82
2022-08-05T10:23:02.310Z,29.88
2022-08-05T10:25:31.588Z,30.08
2022-08-05T10:28:16.707Z,30.15
2022-08-05T10:32:52.140Z,30.19
2022-08-05T10:33:36.197Z,30.23
2022-08-05T10:36:05.154Z,30.27
2022-08-05T10:38:34.892Z,30.27
2022-08-05T10:41:09.974Z,30.18
2022-08-05T10:43:46.451Z,30.15
2022-08-05T10:46:19.384Z,30.36
2022-08-05T10:49:09.870Z,30.37
2022-08-05T10:52:00.691Z,30.31
2022-08-05T10:54:56.363Z,30.41
2022-08-05T10:57:29.673Z,30.07
2022-08-05T11:00:20.724Z,30.18
2022-08-05T11:03:24.341Z,30.30
2022-08-05T11:06:15.249Z,30.20
2022-08-05T11:09:16.291Z,30.18
2022-08-05T11:11:53.452Z,30.32
2022-08-05T11:14:49.384Z,30.32
2022-08-05T11:17:58.950Z,30.29
2022-08-05T11:20:41.590Z,30.51
2022-08-05T11:23:33.289Z,30.62
2022-08-05T11:26:32.130Z,30.33
2022-08-05T11:29:13.069Z,30.48
2022-08-05T11:31:57.801Z,30.53
2022-08-05T11:34:51.709Z,30.44
2022-08-05T11:38:36.518Z,30.58
2022-08-05T11:41:34.795Z,30.51
2022-08-05T11:44:06.535Z,30.52
2022-08-05T11:46:58.432Z,30.64
2022-08-05T11:49:25.917Z,30.73
2022-08-05T11:51:54.297Z,30.73
2022-08-05T11:54:32.735Z,30.63
2022-08-05T11:57:08.311Z,30.79
2022-08-05T11:59:52.051Z,30.67
2022-08-05T12:02:30.186Z,30.62
2022-08-05T12:05:07.903Z,30.60
2022-08-05T12:08:03.823Z,30.73
2022-08-05T12:10:43.037Z,30.74
2022-08-05T12:13:18.630Z,30.62
2022-08-05T12:15:56.070Z,30.63
2022-08-05T12:18:38.707Z,30.77
2022-08-05T12:21:15.241Z,30.83
2022-08-05T12:24:06.979Z,30.89
2022-08-05T12:26:39.136Z,30.85
2022-08-05T12:29:16.289Z,30.94
2022-08-05T12:31:53.081Z,30.82
2022-08-05T12:34:37.213Z,30.84
2022-08-05T12:37:17.703Z,30.89
2022-08-05T12:39:53.923Z,30.76
2022-08-05T12:42:21.954Z,30.67
2022-08-05T12:44:53.201Z,30.59
2022-08-05T12:47:30.430Z,30.72
2022-08-05T12:50:04.310Z,30.75
2022-08-05T12:52:38.878Z,30.75
2022-08-05T12:55:32.873Z,30.82
2022-08-05T12:58:52.684Z,30.76
2022-08-05T13:02:03.140Z,30.71
2022-08-05T13:03:42.233Z,30.69
2022-08-05T13:06:17.978Z,30.65
2022-08-05T13:08:51.556Z,30.71
2022-08-05T13:12:02.767Z,30.64
2022-08-05T13:14:24.996Z,30.60
2022-08-05T13:17:10.634Z,30.53
2022-08-05T13:19:52.090Z,30.48
2022-08-05T13:22:28.147Z,30.57
2022-08-05T13:25:00.606Z,30.68
2022-08-05T13:27:41.985Z,30.84
2022-08-05T13:30:34.712Z,30.92
2022-08-05T13:33:01.424Z,31.08
2022-08-05T13:35:42.490Z,31.11
2022-08-05T13:38:20.042Z,31.06
2022-08-05T13:40:57.853Z,31.09
2022-08-05T13:43:45.304Z,31.08
2022-08-05T13:46:14.394Z,31.18
2022-08-05T13:48:58.178Z,31.09
2022-08-05T13:51:29.861Z,31.00
2022-08-05T13:54:12.485Z,30.94
2022-08-05T13:56:50.916Z,30.99
2022-08-05T13:59:25.310Z,31.05
2022-08-05T14:01:56.599Z,31.05
2022-08-05T14:04:49.888Z,31.05
2022-08-05T14:07:55.519Z,30.96
2022-08-05T14:10:19.027Z,30.99
2022-08-05T14:12:55.729Z,31.00
2022-08-05T14:16:04.559Z,31.15
2022-08-05T14:18:17.290Z,31.25
2022-08-05T14:20:48.378Z,31.31
2022-08-05T14:23:23.448Z,31.44
2022-08-05T14:25:58.128Z,31.50
2022-08-05T14:28:28.952Z,31.29
2022-08-05T14:30:58.122Z,31.21
2022-08-05T14:33:25.900Z,31.29
2022-08-05T14:35:54.537Z,31.26
2022-08-05T14:38:32.315Z,31.28
2022-08-05T14:41:06.114Z,31.31
2022-08-05T14:43:57.456Z,31.20
2022-08-05T14:46:29.639Z,31.04
2022-08-05T14:49:06.307Z,30.92
2022-08-05T14:51:37.592Z,30.87
2022-08-05T14:54:28.082Z,30.94
2022-08-05T14:56:55.593Z,30.92
2022-08-05T14:59:23.488Z,31.00
2022-08-05T15:01:51.286Z,31.09
2022-08-05T15:04:22.287Z,31.09
2022-08-05T15:06:51.268Z,31.07
2022-08-05T15:09:53.543Z,30.91
2022-08-05T15:12:11.668Z,30.94
2022-08-05T15:14:49.612Z,30.91
2022-08-05T15:17:45.929Z,30.93
2022-08-05T15:20:18.207Z,30.87
2022-08-05T15:22:54.029Z,30.99
2022-08-05T15:25:41.093Z,31.03
2022-08-05T15:28:14.848Z,31.11
2022-08-05T15:30:45.719Z,31.11
2022-08-05T15:34:05.886Z,31.08
2022-08-05T15:36:04.527Z,30.90
2022-08-05T15:38:40.840Z,30.91
2022-08-05T15:41:22.859Z,30.75
2022-08-05T15:43:55.057Z,30.75
2022-08-05T15:46:24.830Z,30.68
2022-08-05T15:48:58.901Z,30.61
2022-08-05T15:52:13.881Z,30.64
2022-08-05T15:54:35.033Z,30.64
2022-08-05T15:57:07.391Z,30.54
2022-08-05T15:59:38.125Z,30.60
2022-08-05T16:02:19.813Z,30.64
2022-08-05T16:04:53.466Z,30.62
2022-08-05T16:07:22.866Z,30.48
2022-08-05T16:09:50.591Z,30.50
2022-08-05T16:12:22.475Z,30.38
2022-08-05T16:14:51.066Z,30.39
2022-08-05T16:17:18.729Z,30.34
2022-08-05T16:20:04.779Z,30.37
2022-08-05T16:22:34.606Z,30.40
2022-08-05T16:25:08.046Z,30.40
2022-08-05T16:28:00.902Z,30.45
2022-08-05T16:30:29.036Z,30.50
2022-08-05T16:32:58.177Z,30.54
2022-08-05T16:35:28.494Z,30.53
2022-08-05T16:38:23.830Z,30.45
2022-08-05T16:40:55.245Z,30.42
2022-08-05T16:43:25.317Z,30.35
2022-08-05T16:46:03.549Z,30.35
2022-08-05T16:48:38.302Z,30.34
2022-08-05T16:51:09.002Z,30.35
2022-08-05T16:54:04.180Z,30.35
2022-08-05T16:56:29.839Z,30.26
2022-08-05T16:58:58.382Z,30.22
2022-08-05T17:01:26.483Z,30.18
2022-08-05T17:03:54.305Z,30.15
2022-08-05T17:06:24.681Z,30.03
2022-08-05T17:08:54.359Z,30.01
2022-08-05T17:11:23.930Z,29.89
2022-08-05T17:14:05.287Z,29.84
2022-08-05T17:16:36.733Z,29.70
2022-08-05T17:19:07.719Z,29.62
2022-08-05T17:21:39.637Z,29.53
2022-08-05T17:24:19.634Z,29.56
2022-08-05T17:26:58.039Z,29.45
2022-08-05T17:29:33.180Z,29.42
2022-08-05T17:32:01.902Z,29.34
2022-08-05T17:34:32.611Z,29.21
2022-08-05T17:37:02.464Z,29.12
2022-08-05T17:39:33.932Z,28.90
2022-08-05T17:42:17.352Z,28.74
2022-08-05T17:44:51.081Z,28.56
2022-08-05T17:47:23.605Z,28.39
2022-08-05T17:50:03.958Z,28.29
2022-08-05T17:52:53.451Z,28.12
2022-08-05T17:55:27.422Z,27.80
2022-08-05T17:58:09.675Z,27.56
2022-08-05T18:00:44.676Z,27.38
2022-08-05T18:03:56.285Z,27.25
2022-08-05T18:06:12.097Z,27.08
2022-08-05T18:08:52.434Z,26.91
2022-08-05T18:11:23.934Z,26.80
2022-08-05T18:13:54.112Z,26.43
2022-08-05T18:16:21.863Z,26.26
2022-08-05T18:18:50.067Z,26.17
2022-08-05T18:21:21.459Z,26.01
2022-08-05T18:23:54.272Z,25.80
2022-08-05T18:26:29.345Z,25.51
2022-08-05T18:28:59.797Z,25.31
2022-08-05T18:31:33.009Z,25.11
2022-08-05T18:34:05.877Z,25.02
2022-08-05T18:36:35.601Z,24.77
2022-08-05T18:39:09.724Z,24.62
2022-08-05T18:41:55.344Z,24.35
2022-08-05T18:44:34.944Z,24.30
2022-08-05T18:47:17.180Z,24.12
2022-08-05T18:50:03.319Z,23.96
2022-08-05T18:52:51.082Z,23.82
2022-08-05T18:55:22.425Z,23.71
2022-08-05T18:57:54.073Z,23.61
2022-08-05T19:00:27.304Z,23.50
2022-08-05T19:03:04.069Z,23.41
2022-08-05T19:06:11.914Z,23.25
2022-08-05T19:08:30.898Z,23.21
2022-08-05T19:11:04.931Z,22.94
2022-08-05T19:13:35.947Z,22.85
2022-08-05T19:16:25.324Z,22.74
2022-08-05T19:18:53.741Z,22.73
2022-08-05T19:21:27.536Z,22.66
2022-08-05T19:24:08.692Z,22.61
2022-08-05T19:26:55.040Z,22.57
2022-08-05T19:29:26.706Z,22.46
2022-08-05T19:32:11.271Z,22.39
2022-08-05T19:34:39.479Z,22.31
2022-08-05T19:37:07.435Z,22.25
2022-08-05T19:39:45.177Z,22.22
2022-08-05T19:42:15.189Z,22.19
2022-08-05T19:44:45.199Z,22.12
2022-08-05T19:47:15.350Z,21.98
2022-08-05T19:49:46.033Z,21.85
2022-08-05T19:52:31.457Z,21.71
2022-08-05T19:55:06.577Z,21.68
2022-08-05T19:57:49.216Z,21.64
2022-08-05T20:00:31.346Z,21.58
2022-08-05T20:02:59.882Z,21.54
2022-08-05T20:05:27.397Z,21.54
2022-08-05T20:08:11.573Z,21.47
2022-08-05T20:10:39.671Z,21.41
2022-08-05T20:13:12.368Z,21.42
2022-08-05T20:15:52.204Z,21.36
2022-08-05T20:18:33.806Z,21.28
2022-08-05T20:21:06.685Z,21.21
2022-08-05T20:23:50.941Z,21.12
2022-08-05T20:26:25.394Z,21.03
2022-08-05T20:28:57.660Z,20.98
2022-08-05T20:31:43.009Z,20.93
2022-08-05T20:34:17.183Z,20.87
2022-08-05T20:36:45.800Z,20.85
2022-08-05T20:39:16.284Z,20.84
2022-08-05T20:41:45.213Z,20.83
2022-08-05T20:44:29.707Z,20.82
2022-08-05T20:47:06.614Z,20.80
2022-08-05T20:49:38.059Z,20.78
2022-08-05T20:52:10.631Z,20.70
2022-08-05T20:54:59.866Z,20.68
2022-08-05T20:57:43.560Z,20.74
2022-08-05T21:00:35.010Z,20.70
2022-08-05T21:03:07.385Z,20.74
2022-08-05T21:05:47.901Z,20.90
2022-08-05T21:08:28.089Z,21.01
2022-08-05T21:11:12.071Z,21.09
2022-08-05T21:13:47.745Z,21.24
2022-08-05T21:16:29.818Z,21.32
2022-08-05T21:19:00.840Z,21.31
2022-08-05T21:21:44.216Z,21.35
2022-08-05T21:24:19.917Z,21.51
2022-08-05T21:26:53.216Z,21.83
2022-08-05T21:29:31.820Z,22.09
2022-08-05T21:32:04.481Z,22.36
2022-08-05T21:34:33.123Z,22.52
2022-08-05T21:37:05.016Z,22.74
2022-08-05T21:39:34.803Z,22.94
2022-08-05T21:42:31.159Z,23.06
2022-08-05T21:44:56.368Z,23.25
2022-08-05T21:47:54.984Z,23.40
2022-08-05T21:50:14.695Z,23.57
2022-08-05T21:52:47.340Z,23.66
2022-08-05T21:55:17.152Z,23.71
2022-08-05T21:57:45.278Z,23.73
2022-08-05T22:00:14.641Z,23.83
2022-08-05T22:02:43.235Z,23.89
2022-08-05T22:05:12.763Z,23.88
2022-08-05T22:07:59.598Z,23.92
2022-08-05T22:10:31.323Z,23.92
2022-08-05T22:14:06.049Z,24.00
2022-08-05T22:16:01.367Z,24.02
2022-08-05T22:18:30.838Z,23.99
2022-08-05T22:21:04.216Z,24.01
2022-08-05T22:24:52.396Z,24.00
2022-08-05T22:28:08.220Z,23.99
2022-08-05T22:30:35.373Z,24.00
2022-08-05T22:33:15.286Z,24.00
2022-08-05T22:35:48.083Z,23.93
2022-08-05T22:38:19.644Z,23.87
2022-08-05T22:40:49.532Z,23.89
2022-08-05T22:43:37.228Z,23.81
2022-08-05T22:46:13.035Z,23.83
2022-08-05T22:48:43.187Z,23.76
2022-08-05T22:51:16.055Z,23.82
2022-08-05T22:53:54.940Z,23.79
2022-08-05T22:56:30.230Z,23.72
2022-08-05T22:59:03.981Z,23.75
2022-08-05T23:02:04.086Z,23.63
2022-08-05T23:04:33.352Z,23.64
2022-08-05T23:07:00.779Z,23.62
2022-08-05T23:09:57.637Z,23.66
2022-08-05T23:12:18.092Z,23.67
2022-08-05T23:14:45.924Z,23.67
2022-08-05T23:17:32.713Z,23.68
2022-08-05T23:20:16.784Z,23.63
2022-08-05T23:22:48.701Z,23.63
2022-08-05T23:25:51.448Z,23.62
2022-08-05T23:28:07.134Z,23.56
2022-08-05T23:30:40.594Z,23.53
2022-08-05T23:33:16.368Z,23.49
2022-08-05T23:35:56.059Z,23.45
2022-08-05T23:38:26.170Z,23.42
2022-08-05T23:40:54.561Z,23.43
2022-08-05T23:43:24.885Z,23.41
2022-08-05T23:46:19.970Z,23.38
2022-08-05T23:48:59.626Z,23.37
2022-08-05T23:51:54.107Z,23.28
2022-08-05T23:54:26.132Z,23.19
2022-08-05T23:56:55.717Z,23.12
